Time;durP1;ratioP1;P1;durP2;ratioP2;P2;SDS_P1;SDS_P2;PMS_P1;PMS_P2;Temp;Humidity;BMP_temperature;BMP_pressure;BME280_temperature;BME280_humidity;BME280_pressure;Samples;Min_cycle;Max_cycle;Signal;HPM_P1;HPM_P2
2022/08/17 00:01:49;;;;;;;8.67;7.00;;;;;21.00;98242.00;;;;16784556;28;20217;-50
2022/08/17 00:09:51;;;;;;;7.53;6.90;;;;;21.10;98236.00;;;;16784555;28;20304;-50
2022/08/17 00:17:55;;;;;;;7.03;6.43;;;;;21.60;98228.00;;;;16784307;28;20276;-50
2022/08/17 00:26:00;;;;;;;8.30;7.70;;;;;20.40;98236.00;;;;16784474;28;20232;-48
2022/08/17 00:34:07;;;;;;;7.97;7.37;;;;;20.50;98226.00;;;;16783828;28;20224;-50
2022/08/17 00:42:13;;;;;;;7.10;6.50;;;;;20.70;98215.00;;;;16783244;28;20232;-50
2022/08/17 00:50:19;;;;;;;8.00;7.30;;;;;21.10;98209.00;;;;16783148;28;20236;-50
2022/08/17 00:58:22;;;;;;;7.97;7.20;;;;;20.70;98208.00;;;;16783359;28;20308;-51
2022/08/17 01:06:27;;;;;;;7.80;7.07;;;;;20.30;98215.00;;;;16783244;28;20580;-48
2022/08/17 01:14:29;;;;;;;9.07;6.73;;;;;20.60;98212.00;;;;16794673;28;20763;-49
2022/08/17 01:22:33;;;;;;;8.43;7.00;;;;;20.20;98204.00;;;;16793776;28;20657;-50
2022/08/17 01:30:35;;;;;;;8.77;7.97;;;;;20.30;98202.00;;;;16793742;28;20311;-50
2022/08/17 01:38:40;;;;;;;8.80;8.10;;;;;19.80;98209.00;;;;16793581;28;20669;-50
2022/08/17 01:46:42;;;;;;;8.70;8.00;;;;;19.80;98207.00;;;;16793739;28;20266;-50
2022/08/17 01:54:47;;;;;;;9.57;8.20;;;;;19.90;98214.00;;;;16792590;28;20355;-50
2022/08/17 02:02:50;;;;;;;9.00;8.20;;;;;20.20;98209.00;;;;16792324;28;20296;-49
2022/08/17 02:10:54;;;;;;;10.70;8.37;;;;;19.60;98221.00;;;;16789947;28;20296;-48
2022/08/17 02:18:57;;;;;;;8.50;7.77;;;;;19.60;98223.00;;;;16790050;28;20213;-49
2022/08/17 02:27:01;;;;;;;8.43;7.77;;;;;19.70;98226.00;;;;16790200;28;20303;-50
2022/08/17 02:35:04;;;;;;;7.07;6.57;;;;;19.50;98220.00;;;;16789287;28;20604;-49
2022/08/17 02:43:09;;;;;;;8.60;8.03;;;;;19.40;98224.00;;;;16789201;28;20217;-50
2022/08/17 02:51:11;;;;;;;8.37;7.77;;;;;19.30;98222.00;;;;16787826;28;20307;-48
2022/08/17 02:59:15;;;;;;;9.30;8.50;;;;;19.40;98235.00;;;;16788506;28;20227;-50
2022/08/17 03:07:19;;;;;;;8.80;8.10;;;;;20.20;98224.00;;;;16787688;28;20316;-50
2022/08/17 03:15:24;;;;;;;9.07;8.37;;;;;19.40;98220.00;;;;16786594;28;20841;-48
2022/08/17 03:23:28;;;;;;;8.90;8.10;;;;;19.90;98226.00;;;;16786022;28;20228;-50
2022/08/17 03:31:31;;;;;;;7.80;7.20;;;;;19.20;98227.00;;;;16772687;22;20229;-50
2022/08/17 03:39:34;;;;;;;9.73;8.83;;;;;19.30;98235.00;;;;16708844;28;20914;-50
2022/08/17 04:04:26;;;;;;;8.73;8.03;;;;;20.40;98268.00;;;;16716530;28;20238;-50
2022/08/17 04:12:29;;;;;;;9.73;8.93;;;;;19.40;98282.00;;;;16716425;28;20215;-49
2022/08/17 04:20:34;;;;;;;10.93;10.03;;;;;20.80;98269.00;;;;16655225;28;20226;-49
2022/08/17 04:28:36;;;;;;;10.37;9.50;;;;;20.10;98273.00;;;;16631689;28;20345;-50
2022/08/17 04:36:40;;;;;;;9.50;8.80;;;;;19.40;98287.00;;;;16650187;28;20273;-49
2022/08/17 04:44:42;;;;;;;8.30;7.60;;;;;19.70;98286.00;;;;16655939;28;20231;-50
2022/08/17 04:52:47;;;;;;;8.80;8.10;;;;;19.60;98304.00;;;;16661325;28;20222;-50
2022/08/17 05:00:49;;;;;;;8.90;7.87;;;;;19.90;98304.00;;;;16662784;28;20595;-50
2022/08/17 05:08:53;;;;;;;8.90;8.30;;;;;19.60;98328.00;;;;16661910;28;20246;-50
2022/08/17 05:16:56;;;;;;;12.10;10.90;;;;;20.60;98304.00;;;;16660910;28;20191;-50
2022/08/17 05:24:59;;;;;;;12.20;11.20;;;;;20.80;98304.00;;;;16660732;28;20233;-50
2022/08/17 05:33:04;;;;;;;12.40;11.30;;;;;20.80;98303.00;;;;16659325;28;20305;-50
2022/08/17 05:41:09;;;;;;;13.83;12.73;;;;;21.60;98311.00;;;;16659460;28;20640;-49
2022/08/17 05:49:12;;;;;;;13.23;11.90;;;;;22.10;98310.00;;;;16660087;28;20317;-48
2022/08/17 05:57:40;;;;;;;12.77;11.67;;;;;22.50;98314.00;;;;16658218;28;20624;-48
2022/08/17 06:05:54;;;;;;;13.03;11.83;;;;;22.10;98317.00;;;;16657843;28;20219;-47
2022/08/17 06:14:13;;;;;;;13.23;12.13;;;;;22.40;98337.00;;;;16657103;28;20225;-48
2022/08/17 06:22:20;;;;;;;12.80;11.20;;;;;22.90;98348.00;;;;16655513;28;20698;-48
2022/08/17 06:30:26;;;;;;;13.07;12.00;;;;;23.10;98346.00;;;;16656255;28;20321;-47
2022/08/17 06:38:37;;;;;;;13.87;12.57;;;;;23.70;98343.00;;;;16655940;28;20666;-48
2022/08/17 06:46:45;;;;;;;13.73;12.30;;;;;24.00;98357.00;;;;16655841;28;20222;-47
2022/08/17 06:54:54;;;;;;;10.53;9.53;;;;;24.70;98361.00;;;;16654013;28;20612;-48
2022/08/17 07:03:01;;;;;;;10.80;10.00;;;;;24.90;98344.00;;;;16653906;28;20218;-48
2022/08/17 07:11:07;;;;;;;11.47;10.47;;;;;25.60;98327.00;;;;16652550;28;20794;-49
2022/08/17 07:19:10;;;;;;;12.33;11.10;;;;;25.50;98334.00;;;;16653197;28;20301;-48
2022/08/17 07:27:20;;;;;;;8.60;7.83;;;;;26.00;98317.00;;;;16653289;28;20268;-49
2022/08/17 07:35:35;;;;;;;8.33;7.53;;;;;26.70;98316.00;;;;16651537;28;20218;-48
2022/08/17 07:43:44;;;;;;;7.73;7.03;;;;;27.30;98313.00;;;;16651864;28;20227;-49
2022/08/17 07:52:04;;;;;;;9.90;8.00;;;;;27.80;98320.00;;;;16650718;28;20250;-49
2022/08/17 08:00:18;;;;;;;7.80;7.20;;;;;28.50;98326.00;;;;16650942;28;20215;-49
2022/08/17 08:08:31;;;;;;;7.73;6.90;;;;;28.80;98342.00;;;;16650369;28;20230;-49
2022/08/17 08:16:34;;;;;;;6.73;6.13;;;;;29.00;98344.00;;;;16687032;28;20776;-48
2022/08/17 08:24:54;;;;;;;8.30;7.50;;;;;29.10;98359.00;;;;16729003;28;20217;-49
2022/08/17 08:33:16;;;;;;;9.37;8.57;;;;;27.90;98354.00;;;;16728600;28;20804;-49
2022/08/17 08:41:29;;;;;;;9.53;8.57;;;;;28.30;98366.00;;;;16728884;28;20756;-49
2022/08/17 08:49:51;;;;;;;9.60;6.60;;;;;27.40;98387.00;;;;16727557;28;20226;-48
2022/08/17 08:57:59;;;;;;;7.93;6.30;;;;;27.20;98381.00;;;;16728193;28;20217;-48
2022/08/17 09:06:16;;;;;;;9.87;7.47;;;;;28.30;98387.00;;;;16727222;28;20222;-48
2022/08/17 09:14:24;;;;;;;7.60;6.97;;;;;27.20;98380.00;;;;16726635;28;20234;-48
2022/08/17 09:22:30;;;;;;;9.07;7.03;;;;;27.20;98393.00;;;;16725704;28;20230;-49
2022/08/17 09:30:41;;;;;;;8.00;7.30;;;;;28.30;98415.00;;;;16733098;22;20226;-49
2022/08/17 09:38:48;;;;;;;8.10;7.30;;;;;28.10;98405.00;;;;16678020;28;20198;-51
2022/08/17 09:46:57;;;;;;;8.63;7.83;;;;;27.10;98432.00;;;;16662968;28;20706;-49
2022/08/17 09:55:00;;;;;;;8.10;7.40;;;;;27.70;98427.00;;;;16659336;28;20260;-51
2022/08/17 10:03:34;;;;;;;8.00;7.20;;;;;29.20;98404.00;;;;16659386;28;20214;-51
2022/08/17 10:20:05;;;;;;;6.83;6.33;;;;;28.10;98432.00;;;;16659208;28;20591;-48
2022/08/17 10:28:12;;;;;;;6.20;5.40;;;;;28.70;98438.00;;;;16658980;28;20214;-51
2022/08/17 10:36:21;;;;;;;6.03;5.53;;;;;29.70;98443.00;;;;16657699;28;20226;-51
2022/08/17 10:44:29;;;;;;;5.93;5.33;;;;;28.30;98455.00;;;;16656199;28;20314;-52
2022/08/17 10:52:48;;;;;;;5.77;5.27;;;;;28.80;98473.00;;;;16656185;28;20218;-51
2022/08/17 11:00:58;;;;;;;6.00;5.50;;;;;29.40;98456.00;;;;16655819;28;20258;-51
2022/08/17 11:09:18;;;;;;;6.50;5.37;;;;;28.60;98471.00;;;;16655247;28;20260;-51
2022/08/17 11:17:51;;;;;;;5.80;5.33;;;;;27.70;98488.00;;;;16655204;28;20198;-51
2022/08/17 11:25:56;;;;;;;5.67;5.17;;;;;27.60;98495.00;;;;16646723;28;20246;-51
2022/08/17 11:34:03;;;;;;;5.27;4.80;;;;;27.00;98507.00;;;;16654134;28;20330;-50
2022/08/17 11:42:16;;;;;;;5.50;5.00;;;;;27.70;98513.00;;;;16653605;28;20229;-51
2022/08/17 11:58:57;;;;;;;7.80;4.73;;;;;27.00;98515.00;;;;16652773;28;20248;-51
2022/08/17 12:07:07;;;;;;;7.40;5.87;;;;;28.40;98501.00;;;;16652959;28;20751;-50
2022/08/17 12:15:17;;;;;;;5.57;4.93;;;;;28.00;98472.00;;;;16651796;28;20217;-51
2022/08/17 12:23:34;;;;;;;7.57;5.73;;;;;28.20;98462.00;;;;16651840;28;20711;-50
2022/08/17 12:31:43;;;;;;;5.97;5.37;;;;;28.40;98456.00;;;;16651975;28;20222;-50
2022/08/17 12:39:54;;;;;;;6.87;6.13;;;;;30.00;98438.00;;;;16652379;28;20226;-50
2022/08/17 12:48:06;;;;;;;7.47;5.83;;;;;29.50;98429.00;;;;16651421;28;20817;-50
2022/08/17 12:56:12;;;;;;;5.80;5.30;;;;;30.40;98407.00;;;;16651371;28;20211;-50
2022/08/17 13:04:16;;;;;;;6.60;6.00;;;;;32.60;98372.00;;;;16654316;28;20229;-52
2022/08/17 13:12:27;;;;;;;8.63;5.27;;;;;35.50;98363.00;;;;16662803;28;20223;-50
2022/08/17 13:20:31;;;;;;;5.63;4.03;;;;;34.40;98360.00;;;;16664584;28;20306;-51
2022/08/17 13:28:35;;;;;;;4.50;3.97;;;;;35.10;98362.00;;;;16662617;28;20214;-52
2022/08/17 13:36:39;;;;;;;5.37;4.87;;;;;32.80;98355.00;;;;16662287;28;20602;-51
2022/08/17 13:44:41;;;;;;;4.90;4.50;;;;;31.90;98347.00;;;;16661304;28;20300;-49
2022/08/17 13:52:45;;;;;;;4.87;4.47;;;;;33.30;98353.00;;;;16659998;28;20317;-51
2022/08/17 14:00:49;;;;;;;5.30;4.90;;;;;32.30;98349.00;;;;16659980;28;20305;-51
2022/08/17 14:08:55;;;;;;;4.83;4.43;;;;;32.30;98332.00;;;;16662258;28;20702;-50
2022/08/17 14:16:58;;;;;;;4.97;4.57;;;;;33.00;98304.00;;;;16659907;28;20290;-52
2022/08/17 14:25:02;;;;;;;5.13;4.60;;;;;36.30;98284.00;;;;16659300;28;20215;-50
2022/08/17 14:33:04;;;;;;;4.53;4.13;;;;;34.30;98290.00;;;;16658259;28;20266;-51
2022/08/17 14:41:09;;;;;;;5.00;4.40;;;;;33.40;98290.00;;;;16657139;28;20220;-50
2022/08/17 14:49:14;;;;;;;4.30;4.00;;;;;33.50;98291.00;;;;16656019;28;20241;-51
2022/08/17 14:57:18;;;;;;;4.93;4.53;;;;;32.80;98296.00;;;;16656573;28;20194;-50
2022/08/17 15:05:22;;;;;;;6.67;4.80;;;;;32.20;98303.00;;;;16655762;28;20293;-51
2022/08/17 15:13:26;;;;;;;5.37;4.57;;;;;32.40;98301.00;;;;16654758;28;20422;-51
2022/08/17 15:21:29;;;;;;;4.67;4.37;;;;;32.00;98295.00;;;;16655133;28;20222;-51
2022/08/17 15:29:41;;;;;;;4.70;4.30;;;;;33.30;98294.00;;;;16654322;28;20215;-52
2022/08/17 15:37:44;;;;;;;4.97;4.47;;;;;34.20;98283.00;;;;16653716;28;20600;-49
2022/08/17 15:45:48;;;;;;;5.17;4.73;;;;;33.00;98284.00;;;;16653406;28;20728;-50
2022/08/17 15:53:53;;;;;;;7.50;4.37;;;;;32.60;98283.00;;;;16652593;28;20309;-51
2022/08/17 16:01:58;;;;;;;5.30;4.80;;;;;31.70;98274.00;;;;16653096;28;20822;-51
2022/08/17 16:10:00;;;;;;;5.40;5.00;;;;;31.20;98266.00;;;;16652973;28;20658;-50
2022/08/17 16:18:05;;;;;;;5.37;4.87;;;;;31.40;98257.00;;;;16652901;28;20539;-51
2022/08/17 16:26:07;;;;;;;5.57;5.17;;;;;31.10;98255.00;;;;16651908;28;20237;-51
2022/08/17 16:34:11;;;;;;;4.90;4.60;;;;;30.70;98246.00;;;;16651519;28;20269;-51
2022/08/17 16:42:25;;;;;;;5.33;4.90;;;;;30.40;98246.00;;;;16661740;28;20301;-51
2022/08/17 16:50:30;;;;;;;5.27;4.87;;;;;30.10;98252.00;;;;16663521;28;20223;-51
2022/08/17 16:58:33;;;;;;;7.57;5.50;;;;;29.80;98248.00;;;;16664617;28;20191;-50
2022/08/17 17:06:43;;;;;;;6.03;5.40;;;;;30.60;98242.00;;;;16663314;28;20752;-50
2022/08/17 17:14:47;;;;;;;5.83;5.20;;;;;30.60;98242.00;;;;16661817;28;20297;-51
2022/08/17 17:22:59;;;;;;;6.40;5.90;;;;;29.90;98257.00;;;;16662279;28;20215;-51
2022/08/17 17:31:06;;;;;;;7.60;6.50;;;;;29.50;98263.00;;;;16662031;28;20301;-52
2022/08/17 17:39:12;;;;;;;8.97;6.17;;;;;28.90;98253.00;;;;16661084;28;20211;-51
2022/08/17 17:47:15;;;;;;;6.87;6.30;;;;;28.00;98240.00;;;;16660502;28;20225;-51
2022/08/17 17:55:31;;;;;;;6.70;6.10;;;;;28.80;98232.00;;;;16659350;28;20556;-50
2022/08/17 18:03:45;;;;;;;8.00;7.30;;;;;28.40;98240.00;;;;16659446;28;20218;-51
2022/08/17 18:12:08;;;;;;;10.10;7.57;;;;;28.20;98244.00;;;;16660200;28;20223;-51
2022/08/17 18:20:10;;;;;;;8.90;6.67;;;;;28.40;98248.00;;;;16658612;28;20305;-50
2022/08/17 18:28:23;;;;;;;10.00;7.00;;;;;27.60;98244.00;;;;16657902;28;20226;-51
2022/08/17 18:36:28;;;;;;;7.77;6.93;;;;;26.70;98258.00;;;;16660677;28;20221;-51
2022/08/17 18:44:43;;;;;;;8.07;7.27;;;;;25.90;98265.00;;;;16658098;28;20223;-50
2022/08/17 18:52:47;;;;;;;7.93;7.23;;;;;25.80;98271.00;;;;16656132;28;20660;-51
2022/08/17 19:00:51;;;;;;;7.70;7.10;;;;;25.90;98274.00;;;;16656043;28;20222;-49
2022/08/17 19:08:53;;;;;;;8.20;7.50;;;;;25.30;98293.00;;;;16655474;28;20780;-50
2022/08/17 19:17:00;;;;;;;7.70;7.00;;;;;25.10;98312.00;;;;16655067;28;21024;-51
2022/08/17 19:25:09;;;;;;;8.03;7.20;;;;;25.20;98296.00;;;;16655075;28;20716;-50
2022/08/17 19:33:13;;;;;;;8.10;7.30;;;;;24.80;98304.00;;;;16654541;28;20577;-49
2022/08/17 19:41:21;;;;;;;7.20;6.60;;;;;24.70;98309.00;;;;16653723;28;20305;-51
2022/08/17 19:49:34;;;;;;;8.37;7.30;;;;;24.80;98268.00;;;;16653646;28;20309;-50
2022/08/17 19:57:41;;;;;;;7.23;6.63;;;;;24.60;98282.00;;;;16653144;28;20194;-48
2022/08/17 20:05:50;;;;;;;8.03;7.33;;;;;24.40;98282.00;;;;16652642;28;20317;-51
2022/08/17 20:13:59;;;;;;;7.10;6.50;;;;;24.60;98281.00;;;;16660967;28;20241;-50
2022/08/17 20:22:09;;;;;;;6.93;6.43;;;;;24.10;98294.00;;;;16674440;28;20281;-51
2022/08/17 20:30:31;;;;;;;7.90;7.10;;;;;23.80;98284.00;;;;16674628;28;20229;-51
2022/08/17 20:38:42;;;;;;;8.07;7.27;;;;;23.80;98281.00;;;;16674147;28;20190;-51
2022/08/17 20:46:55;;;;;;;7.53;6.83;;;;;23.40;98299.00;;;;16673523;28;20311;-50
2022/08/17 20:55:01;;;;;;;8.57;7.77;;;;;23.40;98316.00;;;;16672753;28;20211;-51
2022/08/17 21:03:44;;;;;;;8.73;7.80;;;;;23.50;98327.00;;;;16672944;28;20707;-50
2022/08/17 21:11:59;;;;;;;7.60;7.00;;;;;23.40;98340.00;;;;16673127;28;20789;-51
2022/08/17 21:20:04;;;;;;;7.93;7.17;;;;;23.80;98331.00;;;;16673114;28;20225;-51
2022/08/17 21:28:16;;;;;;;8.10;7.40;;;;;24.00;98346.00;;;;16664111;28;20645;-49
2022/08/17 21:36:25;;;;;;;7.03;6.33;;;;;23.80;98341.00;;;;16889572;22;20306;-48
2022/08/17 21:44:35;;;;;;;8.80;8.10;;;;;23.70;98361.00;;;;16885479;28;20786;-50
2022/08/17 21:52:40;;;;;;;7.50;6.90;;;;;23.60;98408.00;;;;16858313;28;20580;-51
2022/08/17 22:00:44;;;;;;;9.10;8.23;;;;;23.50;98429.00;;;;16859072;28;20220;-51
2022/08/17 22:09:03;;;;;;;8.70;7.90;;;;;23.60;98462.00;;;;16857319;28;20225;-51
2022/08/17 22:17:10;;;;;;;7.37;6.77;;;;;24.60;98496.00;;;;16855696;28;20225;-51
2022/08/17 22:25:20;;;;;;;7.73;7.13;;;;;24.00;98520.00;;;;16855317;28;20223;-48
2022/08/17 22:33:39;;;;;;;8.60;7.80;;;;;24.00;98544.00;;;;16854834;28;20221;-49
2022/08/17 22:41:50;;;;;;;7.63;7.00;;;;;24.10;98571.00;;;;16853742;28;20213;-49
2022/08/17 22:49:56;;;;;;;7.60;7.07;;;;;24.00;98576.00;;;;16854094;28;20608;-49
2022/08/17 23:06:20;;;;;;;7.10;6.60;;;;;23.80;98600.00;;;;16853141;28;20586;-49
2022/08/17 23:14:22;;;;;;;8.03;7.43;;;;;23.70;98615.00;;;;16851968;28;20305;-49
2022/08/17 23:22:26;;;;;;;9.07;8.17;;;;;23.30;98614.00;;;;16852197;28;20208;-49
2022/08/17 23:30:29;;;;;;;9.90;9.10;;;;;23.00;98608.00;;;;16851291;28;20273;-49
2022/08/17 23:38:33;;;;;;;13.37;12.07;;;;;22.90;98607.00;;;;16851205;28;20199;-49
2022/08/17 23:46:35;;;;;;;12.93;11.83;;;;;22.90;98622.00;;;;16850338;28;20300;-49
2022/08/17 23:54:43;;;;;;;10.50;9.60;;;;;22.80;98623.00;;;;16847852;28;20299;-49
